sensor_id;sensor_type;location;lat;lon;timestamp;P1;durP1;ratioP1;P2;durP2;ratioP2
36827;SDS011;22766;48.042;11.192;2023-05-01T00:02:02;2.95;;;2.28;;
36827;SDS011;22766;48.042;11.192;2023-05-01T00:04:28;3.70;;;1.98;;
36827;SDS011;22766;48.042;11.192;2023-05-01T00:06:55;2.50;;;2.10;;
36827;SDS011;22766;48.042;11.192;2023-05-01T00:09:22;3.15;;;1.92;;
36827;SDS011;22766;48.042;11.192;2023-05-01T00:11:52;3.08;;;1.95;;
36827;SDS011;22766;48.042;11.192;2023-05-01T00:14:19;2.92;;;2.00;;
36827;SDS011;22766;48.042;11.192;2023-05-01T00:16:46;3.25;;;2.08;;
36827;SDS011;22766;48.042;11.192;2023-05-01T00:19:13;3.13;;;2.00;;
36827;SDS011;22766;48.042;11.192;2023-05-01T00:21:44;2.15;;;1.58;;
36827;SDS011;22766;48.042;11.192;2023-05-01T00:24:12;2.78;;;1.85;;
36827;SDS011;22766;48.042;11.192;2023-05-01T00:26:39;2.30;;;1.65;;
36827;SDS011;22766;48.042;11.192;2023-05-01T00:29:06;3.55;;;2.08;;
36827;SDS011;22766;48.042;11.192;2023-05-01T00:31:33;7.18;;;2.20;;
36827;SDS011;22766;48.042;11.192;2023-05-01T00:33:59;3.28;;;1.73;;
36827;SDS011;22766;48.042;11.192;2023-05-01T00:36:26;4.63;;;2.42;;
36827;SDS011;22766;48.042;11.192;2023-05-01T00:38:53;3.03;;;2.00;;
36827;SDS011;22766;48.042;11.192;2023-05-01T00:41:19;5.15;;;2.30;;
36827;SDS011;22766;48.042;11.192;2023-05-01T00:43:46;3.28;;;2.10;;
36827;SDS011;22766;48.042;11.192;2023-05-01T00:46:13;3.60;;;2.08;;
36827;SDS011;22766;48.042;11.192;2023-05-01T00:48:40;3.25;;;1.50;;
36827;SDS011;22766;48.042;11.192;2023-05-01T00:51:07;2.53;;;1.88;;
36827;SDS011;22766;48.042;11.192;2023-05-01T00:53:34;3.08;;;2.15;;
36827;SDS011;22766;48.042;11.192;2023-05-01T00:56:00;3.95;;;2.20;;
36827;SDS011;22766;48.042;11.192;2023-05-01T00:58:28;3.40;;;2.15;;
36827;SDS011;22766;48.042;11.192;2023-05-01T01:00:55;3.03;;;2.05;;
36827;SDS011;22766;48.042;11.192;2023-05-01T01:03:22;2.65;;;2.00;;
36827;SDS011;22766;48.042;11.192;2023-05-01T01:05:56;3.40;;;1.98;;
36827;SDS011;22766;48.042;11.192;2023-05-01T01:14:02;3.50;;;2.45;;
36827;SDS011;22766;48.042;11.192;2023-05-01T01:22:09;2.90;;;2.10;;
36827;SDS011;22766;48.042;11.192;2023-05-01T01:35:17;4.13;;;2.22;;
36827;SDS011;22766;48.042;11.192;2023-05-01T01:37:50;3.47;;;2.40;;
36827;SDS011;22766;48.042;11.192;2023-05-01T01:40:23;3.13;;;1.92;;
36827;SDS011;22766;48.042;11.192;2023-05-01T01:42:55;3.53;;;2.58;;
36827;SDS011;22766;48.042;11.192;2023-05-01T01:45:39;3.35;;;1.80;;
36827;SDS011;22766;48.042;11.192;2023-05-01T01:48:10;5.82;;;2.30;;
36827;SDS011;22766;48.042;11.192;2023-05-01T01:50:40;5.32;;;2.33;;
36827;SDS011;22766;48.042;11.192;2023-05-01T01:53:09;5.68;;;2.42;;
36827;SDS011;22766;48.042;11.192;2023-05-01T01:55:38;8.43;;;2.30;;
36827;SDS011;22766;48.042;11.192;2023-05-01T01:58:07;3.78;;;2.35;;
36827;SDS011;22766;48.042;11.192;2023-05-01T02:00:36;4.93;;;2.65;;
36827;SDS011;22766;48.042;11.192;2023-05-01T02:03:04;5.25;;;1.90;;
36827;SDS011;22766;48.042;11.192;2023-05-01T02:05:32;4.20;;;2.30;;
36827;SDS011;22766;48.042;11.192;2023-05-01T02:08:00;3.53;;;2.50;;
36827;SDS011;22766;48.042;11.192;2023-05-01T02:10:29;3.20;;;2.08;;
36827;SDS011;22766;48.042;11.192;2023-05-01T02:12:57;6.35;;;2.70;;
36827;SDS011;22766;48.042;11.192;2023-05-01T02:15:25;3.25;;;2.35;;
36827;SDS011;22766;48.042;11.192;2023-05-01T02:17:53;4.07;;;2.47;;
36827;SDS011;22766;48.042;11.192;2023-05-01T02:20:20;3.13;;;1.83;;
36827;SDS011;22766;48.042;11.192;2023-05-01T02:22:47;4.82;;;2.35;;
36827;SDS011;22766;48.042;11.192;2023-05-01T02:25:18;4.55;;;2.88;;
36827;SDS011;22766;48.042;11.192;2023-05-01T02:30:11;3.97;;;2.35;;
36827;SDS011;22766;48.042;11.192;2023-05-01T02:32:39;4.82;;;2.60;;
36827;SDS011;22766;48.042;11.192;2023-05-01T02:35:05;4.40;;;2.53;;
36827;SDS011;22766;48.042;11.192;2023-05-01T02:37:32;3.85;;;2.13;;
36827;SDS011;22766;48.042;11.192;2023-05-01T02:40:01;6.00;;;2.50;;
36827;SDS011;22766;48.042;11.192;2023-05-01T02:42:29;6.95;;;2.53;;
36827;SDS011;22766;48.042;11.192;2023-05-01T02:45:41;4.63;;;2.42;;
36827;SDS011;22766;48.042;11.192;2023-05-01T02:47:50;4.17;;;2.20;;
36827;SDS011;22766;48.042;11.192;2023-05-01T02:50:19;7.25;;;3.00;;
36827;SDS011;22766;48.042;11.192;2023-05-01T02:52:48;3.83;;;2.35;;
36827;SDS011;22766;48.042;11.192;2023-05-01T02:55:35;3.63;;;2.25;;
36827;SDS011;22766;48.042;11.192;2023-05-01T02:58:02;3.28;;;2.47;;
36827;SDS011;22766;48.042;11.192;2023-05-01T03:00:29;3.78;;;2.10;;
36827;SDS011;22766;48.042;11.192;2023-05-01T03:02:56;6.43;;;2.63;;
36827;SDS011;22766;48.042;11.192;2023-05-01T03:05:23;3.70;;;2.30;;
36827;SDS011;22766;48.042;11.192;2023-05-01T03:07:50;5.60;;;2.25;;
36827;SDS011;22766;48.042;11.192;2023-05-01T03:10:17;3.53;;;2.45;;
36827;SDS011;22766;48.042;11.192;2023-05-01T03:12:43;6.05;;;2.60;;
36827;SDS011;22766;48.042;11.192;2023-05-01T03:15:11;3.53;;;2.47;;
36827;SDS011;22766;48.042;11.192;2023-05-01T03:17:38;4.47;;;2.83;;
36827;SDS011;22766;48.042;11.192;2023-05-01T03:20:06;4.47;;;2.63;;
36827;SDS011;22766;48.042;11.192;2023-05-01T03:22:34;4.75;;;2.45;;
36827;SDS011;22766;48.042;11.192;2023-05-01T03:25:02;3.53;;;2.60;;
36827;SDS011;22766;48.042;11.192;2023-05-01T03:27:30;6.03;;;3.30;;
36827;SDS011;22766;48.042;11.192;2023-05-01T03:29:57;4.47;;;2.33;;
36827;SDS011;22766;48.042;11.192;2023-05-01T03:32:24;4.65;;;2.88;;
36827;SDS011;22766;48.042;11.192;2023-05-01T03:34:52;4.25;;;2.45;;
36827;SDS011;22766;48.042;11.192;2023-05-01T03:37:19;5.93;;;2.95;;
36827;SDS011;22766;48.042;11.192;2023-05-01T03:39:47;3.33;;;2.42;;
36827;SDS011;22766;48.042;11.192;2023-05-01T03:42:32;4.43;;;2.28;;
36827;SDS011;22766;48.042;11.192;2023-05-01T03:45:06;3.85;;;2.47;;
36827;SDS011;22766;48.042;11.192;2023-05-01T03:47:33;3.55;;;2.50;;
36827;SDS011;22766;48.042;11.192;2023-05-01T03:50:00;5.15;;;2.47;;
36827;SDS011;22766;48.042;11.192;2023-05-01T03:52:31;3.17;;;2.40;;
36827;SDS011;22766;48.042;11.192;2023-05-01T03:54:57;2.92;;;2.30;;
36827;SDS011;22766;48.042;11.192;2023-05-01T03:57:31;6.50;;;2.63;;
36827;SDS011;22766;48.042;11.192;2023-05-01T03:59:59;4.07;;;2.20;;
36827;SDS011;22766;48.042;11.192;2023-05-01T04:02:28;4.68;;;2.85;;
36827;SDS011;22766;48.042;11.192;2023-05-01T04:04:55;4.63;;;2.72;;
36827;SDS011;22766;48.042;11.192;2023-05-01T04:07:23;7.18;;;2.75;;
36827;SDS011;22766;48.042;11.192;2023-05-01T04:09:50;5.57;;;3.30;;
36827;SDS011;22766;48.042;11.192;2023-05-01T04:12:17;4.60;;;2.47;;
36827;SDS011;22766;48.042;11.192;2023-05-01T04:14:43;4.88;;;2.80;;
36827;SDS011;22766;48.042;11.192;2023-05-01T04:17:11;5.90;;;3.35;;
36827;SDS011;22766;48.042;11.192;2023-05-01T04:19:37;5.75;;;3.03;;
36827;SDS011;22766;48.042;11.192;2023-05-01T04:22:04;5.53;;;2.90;;
36827;SDS011;22766;48.042;11.192;2023-05-01T04:24:33;4.13;;;2.60;;
36827;SDS011;22766;48.042;11.192;2023-05-01T04:26:59;4.18;;;2.95;;
36827;SDS011;22766;48.042;11.192;2023-05-01T04:29:26;4.55;;;3.20;;
36827;SDS011;22766;48.042;11.192;2023-05-01T04:31:53;4.20;;;2.85;;
36827;SDS011;22766;48.042;11.192;2023-05-01T04:34:20;4.07;;;2.80;;
36827;SDS011;22766;48.042;11.192;2023-05-01T04:36:46;7.25;;;3.20;;
36827;SDS011;22766;48.042;11.192;2023-05-01T04:39:13;5.00;;;3.30;;
36827;SDS011;22766;48.042;11.192;2023-05-01T04:41:41;4.05;;;2.90;;
36827;SDS011;22766;48.042;11.192;2023-05-01T04:44:07;6.88;;;3.15;;
36827;SDS011;22766;48.042;11.192;2023-05-01T04:46:34;4.90;;;3.40;;
36827;SDS011;22766;48.042;11.192;2023-05-01T04:49:02;4.50;;;2.85;;
36827;SDS011;22766;48.042;11.192;2023-05-01T04:51:28;5.15;;;3.08;;
36827;SDS011;22766;48.042;11.192;2023-05-01T04:53:57;3.78;;;2.50;;
36827;SDS011;22766;48.042;11.192;2023-05-01T04:56:25;3.55;;;2.75;;
36827;SDS011;22766;48.042;11.192;2023-05-01T04:58:58;4.43;;;2.97;;
36827;SDS011;22766;48.042;11.192;2023-05-01T05:01:26;3.78;;;2.10;;
36827;SDS011;22766;48.042;11.192;2023-05-01T05:03:53;4.28;;;2.55;;
36827;SDS011;22766;48.042;11.192;2023-05-01T05:06:20;4.15;;;2.40;;
36827;SDS011;22766;48.042;11.192;2023-05-01T05:08:48;3.78;;;2.53;;
36827;SDS011;22766;48.042;11.192;2023-05-01T05:11:17;3.72;;;2.70;;
36827;SDS011;22766;48.042;11.192;2023-05-01T05:13:50;7.95;;;3.50;;
36827;SDS011;22766;48.042;11.192;2023-05-01T05:16:16;4.13;;;2.88;;
36827;SDS011;22766;48.042;11.192;2023-05-01T05:18:43;4.60;;;3.03;;
36827;SDS011;22766;48.042;11.192;2023-05-01T05:21:10;2.90;;;2.67;;
36827;SDS011;22766;48.042;11.192;2023-05-01T05:26:08;5.03;;;2.88;;
36827;SDS011;22766;48.042;11.192;2023-05-01T05:28:35;5.80;;;2.90;;
36827;SDS011;22766;48.042;11.192;2023-05-01T05:31:03;5.50;;;2.88;;
36827;SDS011;22766;48.042;11.192;2023-05-01T05:33:30;4.78;;;3.00;;
36827;SDS011;22766;48.042;11.192;2023-05-01T05:35:57;5.70;;;3.03;;
36827;SDS011;22766;48.042;11.192;2023-05-01T05:38:30;5.05;;;3.08;;
36827;SDS011;22766;48.042;11.192;2023-05-01T05:40:57;3.85;;;2.45;;
36827;SDS011;22766;48.042;11.192;2023-05-01T05:43:25;4.63;;;2.78;;
36827;SDS011;22766;48.042;11.192;2023-05-01T05:45:57;4.72;;;3.00;;
36827;SDS011;22766;48.042;11.192;2023-05-01T05:48:25;3.80;;;2.80;;
36827;SDS011;22766;48.042;11.192;2023-05-01T05:50:53;6.82;;;2.90;;
36827;SDS011;22766;48.042;11.192;2023-05-01T05:53:20;9.02;;;3.92;;
36827;SDS011;22766;48.042;11.192;2023-05-01T05:55:51;5.63;;;3.25;;
36827;SDS011;22766;48.042;11.192;2023-05-01T05:58:18;7.95;;;3.33;;
36827;SDS011;22766;48.042;11.192;2023-05-01T06:00:49;7.43;;;3.58;;
36827;SDS011;22766;48.042;11.192;2023-05-01T06:03:16;7.25;;;3.25;;
36827;SDS011;22766;48.042;11.192;2023-05-01T06:05:45;4.82;;;3.20;;
36827;SDS011;22766;48.042;11.192;2023-05-01T06:08:12;4.55;;;3.22;;
36827;SDS011;22766;48.042;11.192;2023-05-01T06:10:43;4.93;;;3.63;;
36827;SDS011;22766;48.042;11.192;2023-05-01T06:13:11;8.57;;;3.57;;
36827;SDS011;22766;48.042;11.192;2023-05-01T06:15:45;4.93;;;2.72;;
36827;SDS011;22766;48.042;11.192;2023-05-01T06:18:12;3.83;;;2.50;;
36827;SDS011;22766;48.042;11.192;2023-05-01T06:20:39;10.18;;;3.20;;
36827;SDS011;22766;48.042;11.192;2023-05-01T06:23:06;3.60;;;2.65;;
36827;SDS011;22766;48.042;11.192;2023-05-01T06:25:42;5.75;;;3.22;;
36827;SDS011;22766;48.042;11.192;2023-05-01T06:28:09;4.15;;;2.75;;
36827;SDS011;22766;48.042;11.192;2023-05-01T06:30:36;3.58;;;2.65;;
36827;SDS011;22766;48.042;11.192;2023-05-01T06:33:03;4.47;;;2.97;;
36827;SDS011;22766;48.042;11.192;2023-05-01T06:35:30;6.93;;;2.70;;
36827;SDS011;22766;48.042;11.192;2023-05-01T06:37:57;4.90;;;2.58;;
36827;SDS011;22766;48.042;11.192;2023-05-01T06:40:25;5.18;;;2.92;;
36827;SDS011;22766;48.042;11.192;2023-05-01T06:42:53;6.22;;;3.17;;
36827;SDS011;22766;48.042;11.192;2023-05-01T06:47:51;4.72;;;3.15;;
36827;SDS011;22766;48.042;11.192;2023-05-01T06:50:18;4.05;;;2.75;;
36827;SDS011;22766;48.042;11.192;2023-05-01T06:52:44;4.68;;;3.03;;
36827;SDS011;22766;48.042;11.192;2023-05-01T06:55:11;8.32;;;2.70;;
36827;SDS011;22766;48.042;11.192;2023-05-01T06:57:38;5.85;;;3.15;;
36827;SDS011;22766;48.042;11.192;2023-05-01T07:00:08;5.43;;;3.20;;
36827;SDS011;22766;48.042;11.192;2023-05-01T07:02:36;5.38;;;3.22;;
36827;SDS011;22766;48.042;11.192;2023-05-01T07:05:03;4.00;;;2.70;;
36827;SDS011;22766;48.042;11.192;2023-05-01T07:07:31;4.75;;;2.72;;
36827;SDS011;22766;48.042;11.192;2023-05-01T07:09:57;5.95;;;3.17;;
36827;SDS011;22766;48.042;11.192;2023-05-01T07:12:25;5.88;;;2.80;;
36827;SDS011;22766;48.042;11.192;2023-05-01T07:14:52;5.57;;;3.30;;
36827;SDS011;22766;48.042;11.192;2023-05-01T07:17:18;4.63;;;3.03;;
36827;SDS011;22766;48.042;11.192;2023-05-01T07:19:45;3.05;;;2.55;;
36827;SDS011;22766;48.042;11.192;2023-05-01T07:22:12;4.35;;;3.13;;
36827;SDS011;22766;48.042;11.192;2023-05-01T07:24:38;4.78;;;3.08;;
36827;SDS011;22766;48.042;11.192;2023-05-01T07:27:05;6.85;;;3.58;;
36827;SDS011;22766;48.042;11.192;2023-05-01T07:29:32;7.43;;;2.90;;
36827;SDS011;22766;48.042;11.192;2023-05-01T07:31:58;5.47;;;3.33;;
36827;SDS011;22766;48.042;11.192;2023-05-01T07:34:26;8.05;;;3.97;;
36827;SDS011;22766;48.042;11.192;2023-05-01T07:36:53;8.77;;;3.70;;
36827;SDS011;22766;48.042;11.192;2023-05-01T07:39:20;9.98;;;3.30;;
36827;SDS011;22766;48.042;11.192;2023-05-01T07:41:47;5.32;;;3.58;;
36827;SDS011;22766;48.042;11.192;2023-05-01T07:44:14;4.97;;;3.50;;
36827;SDS011;22766;48.042;11.192;2023-05-01T07:46:41;4.88;;;3.03;;
36827;SDS011;22766;48.042;11.192;2023-05-01T07:49:08;6.03;;;3.03;;
36827;SDS011;22766;48.042;11.192;2023-05-01T07:51:35;4.95;;;3.20;;
36827;SDS011;22766;48.042;11.192;2023-05-01T07:54:01;4.55;;;2.92;;
36827;SDS011;22766;48.042;11.192;2023-05-01T07:56:29;4.80;;;3.42;;
36827;SDS011;22766;48.042;11.192;2023-05-01T07:58:56;4.82;;;3.30;;
36827;SDS011;22766;48.042;11.192;2023-05-01T08:01:23;4.18;;;2.88;;
36827;SDS011;22766;48.042;11.192;2023-05-01T08:03:50;7.18;;;3.67;;
36827;SDS011;22766;48.042;11.192;2023-05-01T08:06:17;5.25;;;3.45;;
36827;SDS011;22766;48.042;11.192;2023-05-01T08:08:44;5.72;;;3.65;;
36827;SDS011;22766;48.042;11.192;2023-05-01T08:11:11;6.97;;;3.92;;
36827;SDS011;22766;48.042;11.192;2023-05-01T08:13:37;8.77;;;4.18;;
36827;SDS011;22766;48.042;11.192;2023-05-01T08:16:05;7.22;;;3.92;;
36827;SDS011;22766;48.042;11.192;2023-05-01T08:18:32;7.38;;;3.92;;
36827;SDS011;22766;48.042;11.192;2023-05-01T08:21:01;6.63;;;3.97;;
36827;SDS011;22766;48.042;11.192;2023-05-01T08:23:27;6.13;;;3.42;;
36827;SDS011;22766;48.042;11.192;2023-05-01T08:25:54;11.98;;;5.53;;
36827;SDS011;22766;48.042;11.192;2023-05-01T08:28:21;11.98;;;4.88;;
36827;SDS011;22766;48.042;11.192;2023-05-01T08:30:48;10.00;;;4.85;;
36827;SDS011;22766;48.042;11.192;2023-05-01T08:33:15;9.70;;;5.00;;
36827;SDS011;22766;48.042;11.192;2023-05-01T08:35:42;6.43;;;4.40;;
36827;SDS011;22766;48.042;11.192;2023-05-01T08:38:09;5.78;;;3.45;;
36827;SDS011;22766;48.042;11.192;2023-05-01T08:40:37;6.75;;;4.72;;
36827;SDS011;22766;48.042;11.192;2023-05-01T08:43:04;7.38;;;4.55;;
36827;SDS011;22766;48.042;11.192;2023-05-01T08:45:31;8.23;;;4.45;;
36827;SDS011;22766;48.042;11.192;2023-05-01T08:48:06;7.95;;;5.00;;
36827;SDS011;22766;48.042;11.192;2023-05-01T08:50:38;6.90;;;4.82;;
36827;SDS011;22766;48.042;11.192;2023-05-01T08:53:06;9.63;;;5.13;;
36827;SDS011;22766;48.042;11.192;2023-05-01T08:55:34;6.70;;;4.90;;
36827;SDS011;22766;48.042;11.192;2023-05-01T08:58:02;5.95;;;4.25;;
36827;SDS011;22766;48.042;11.192;2023-05-01T09:00:30;9.13;;;4.07;;
36827;SDS011;22766;48.042;11.192;2023-05-01T09:03:00;6.53;;;4.45;;
36827;SDS011;22766;48.042;11.192;2023-05-01T09:05:29;5.43;;;4.05;;
36827;SDS011;22766;48.042;11.192;2023-05-01T09:07:57;7.18;;;4.28;;
36827;SDS011;22766;48.042;11.192;2023-05-01T09:10:25;8.10;;;4.72;;
36827;SDS011;22766;48.042;11.192;2023-05-01T09:12:54;7.07;;;3.95;;
36827;SDS011;22766;48.042;11.192;2023-05-01T09:15:24;7.50;;;4.95;;
36827;SDS011;22766;48.042;11.192;2023-05-01T09:17:52;6.97;;;4.75;;
36827;SDS011;22766;48.042;11.192;2023-05-01T09:20:20;7.85;;;4.45;;
36827;SDS011;22766;48.042;11.192;2023-05-01T09:22:48;7.43;;;5.35;;
36827;SDS011;22766;48.042;11.192;2023-05-01T09:25:15;9.02;;;5.15;;
36827;SDS011;22766;48.042;11.192;2023-05-01T09:27:43;8.00;;;5.00;;
36827;SDS011;22766;48.042;11.192;2023-05-01T09:30:28;7.85;;;4.95;;
36827;SDS011;22766;48.042;11.192;2023-05-01T09:33:12;6.90;;;4.57;;
36827;SDS011;22766;48.042;11.192;2023-05-01T09:35:52;7.32;;;4.70;;
36827;SDS011;22766;48.042;11.192;2023-05-01T09:38:21;10.13;;;5.20;;
36827;SDS011;22766;48.042;11.192;2023-05-01T09:40:49;9.80;;;5.47;;
36827;SDS011;22766;48.042;11.192;2023-05-01T09:43:22;9.32;;;4.90;;
36827;SDS011;22766;48.042;11.192;2023-05-01T09:45:59;10.45;;;5.80;;
36827;SDS011;22766;48.042;11.192;2023-05-01T09:48:31;9.55;;;5.88;;
36827;SDS011;22766;48.042;11.192;2023-05-01T09:51:03;7.82;;;5.40;;
36827;SDS011;22766;48.042;11.192;2023-05-01T09:53:46;8.20;;;5.82;;
36827;SDS011;22766;48.042;11.192;2023-05-01T09:56:12;9.55;;;6.13;;
36827;SDS011;22766;48.042;11.192;2023-05-01T09:58:40;9.25;;;5.65;;
36827;SDS011;22766;48.042;11.192;2023-05-01T10:01:06;8.52;;;5.63;;
36827;SDS011;22766;48.042;11.192;2023-05-01T10:03:33;10.57;;;5.40;;
36827;SDS011;22766;48.042;11.192;2023-05-01T10:06:00;9.70;;;5.53;;
36827;SDS011;22766;48.042;11.192;2023-05-01T10:08:48;8.85;;;5.95;;
36827;SDS011;22766;48.042;11.192;2023-05-01T10:11:16;8.13;;;5.97;;
36827;SDS011;22766;48.042;11.192;2023-05-01T10:13:42;10.73;;;6.28;;
36827;SDS011;22766;48.042;11.192;2023-05-01T10:16:28;8.70;;;5.78;;
36827;SDS011;22766;48.042;11.192;2023-05-01T10:18:56;10.00;;;6.30;;
36827;SDS011;22766;48.042;11.192;2023-05-01T10:21:23;9.50;;;6.63;;
36827;SDS011;22766;48.042;11.192;2023-05-01T10:23:51;9.90;;;6.45;;
36827;SDS011;22766;48.042;11.192;2023-05-01T10:26:18;9.55;;;6.50;;
36827;SDS011;22766;48.042;11.192;2023-05-01T10:28:47;13.35;;;5.90;;
36827;SDS011;22766;48.042;11.192;2023-05-01T10:31:14;9.98;;;6.18;;
36827;SDS011;22766;48.042;11.192;2023-05-01T10:33:43;9.23;;;6.00;;
36827;SDS011;22766;48.042;11.192;2023-05-01T10:36:12;9.57;;;6.07;;
36827;SDS011;22766;48.042;11.192;2023-05-01T10:38:43;9.35;;;6.20;;
36827;SDS011;22766;48.042;11.192;2023-05-01T10:41:14;9.52;;;6.22;;
36827;SDS011;22766;48.042;11.192;2023-05-01T10:43:44;11.40;;;6.70;;
36827;SDS011;22766;48.042;11.192;2023-05-01T10:51:16;11.35;;;6.47;;
36827;SDS011;22766;48.042;11.192;2023-05-01T10:53:47;11.23;;;6.03;;
36827;SDS011;22766;48.042;11.192;2023-05-01T10:56:38;9.95;;;6.28;;
36827;SDS011;22766;48.042;11.192;2023-05-01T10:59:05;11.43;;;6.32;;
36827;SDS011;22766;48.042;11.192;2023-05-01T11:01:36;11.20;;;6.75;;
36827;SDS011;22766;48.042;11.192;2023-05-01T11:04:03;11.37;;;7.77;;
36827;SDS011;22766;48.042;11.192;2023-05-01T11:06:35;9.77;;;6.68;;
36827;SDS011;22766;48.042;11.192;2023-05-01T11:12:01;10.23;;;6.43;;
36827;SDS011;22766;48.042;11.192;2023-05-01T11:14:49;9.10;;;5.85;;
36827;SDS011;22766;48.042;11.192;2023-05-01T11:22:36;8.63;;;5.65;;
36827;SDS011;22766;48.042;11.192;2023-05-01T11:25:24;10.10;;;6.10;;
36827;SDS011;22766;48.042;11.192;2023-05-01T11:27:59;11.32;;;6.85;;
36827;SDS011;22766;48.042;11.192;2023-05-01T11:30:37;10.50;;;6.25;;
36827;SDS011;22766;48.042;11.192;2023-05-01T11:33:05;10.88;;;6.60;;
36827;SDS011;22766;48.042;11.192;2023-05-01T11:35:36;8.95;;;6.03;;
36827;SDS011;22766;48.042;11.192;2023-05-01T11:38:03;14.93;;;6.90;;
36827;SDS011;22766;48.042;11.192;2023-05-01T11:40:31;12.93;;;6.82;;
36827;SDS011;22766;48.042;11.192;2023-05-01T11:43:03;9.07;;;6.00;;
36827;SDS011;22766;48.042;11.192;2023-05-01T11:45:36;10.52;;;6.25;;
36827;SDS011;22766;48.042;11.192;2023-05-01T11:48:03;11.07;;;6.43;;
36827;SDS011;22766;48.042;11.192;2023-05-01T11:50:39;9.38;;;6.00;;
36827;SDS011;22766;48.042;11.192;2023-05-01T11:53:10;11.25;;;7.25;;
36827;SDS011;22766;48.042;11.192;2023-05-01T11:55:39;10.55;;;7.15;;
36827;SDS011;22766;48.042;11.192;2023-05-01T11:58:06;10.20;;;6.53;;
36827;SDS011;22766;48.042;11.192;2023-05-01T12:00:34;12.40;;;8.52;;
36827;SDS011;22766;48.042;11.192;2023-05-01T12:05:39;11.68;;;7.85;;
36827;SDS011;22766;48.042;11.192;2023-05-01T12:08:14;8.95;;;5.97;;
36827;SDS011;22766;48.042;11.192;2023-05-01T12:10:52;11.02;;;7.22;;
36827;SDS011;22766;48.042;11.192;2023-05-01T12:13:21;10.98;;;6.85;;
36827;SDS011;22766;48.042;11.192;2023-05-01T12:15:49;10.35;;;6.68;;
36827;SDS011;22766;48.042;11.192;2023-05-01T12:18:18;9.73;;;6.47;;
36827;SDS011;22766;48.042;11.192;2023-05-01T12:20:50;11.48;;;7.85;;
36827;SDS011;22766;48.042;11.192;2023-05-01T12:23:18;11.07;;;7.18;;
36827;SDS011;22766;48.042;11.192;2023-05-01T12:25:55;10.68;;;6.70;;
36827;SDS011;22766;48.042;11.192;2023-05-01T12:28:22;9.38;;;6.28;;
36827;SDS011;22766;48.042;11.192;2023-05-01T12:30:49;10.35;;;5.88;;
36827;SDS011;22766;48.042;11.192;2023-05-01T12:33:16;10.02;;;6.53;;
36827;SDS011;22766;48.042;11.192;2023-05-01T12:35:45;9.52;;;6.43;;
36827;SDS011;22766;48.042;11.192;2023-05-01T12:38:15;8.45;;;6.40;;
36827;SDS011;22766;48.042;11.192;2023-05-01T12:40:50;12.88;;;6.88;;
36827;SDS011;22766;48.042;11.192;2023-05-01T12:43:21;8.57;;;6.43;;
36827;SDS011;22766;48.042;11.192;2023-05-01T12:48:30;8.95;;;5.82;;
36827;SDS011;22766;48.042;11.192;2023-05-01T12:50:59;10.38;;;5.72;;
36827;SDS011;22766;48.042;11.192;2023-05-01T12:53:26;10.85;;;6.30;;
36827;SDS011;22766;48.042;11.192;2023-05-01T12:55:57;9.65;;;6.80;;
36827;SDS011;22766;48.042;11.192;2023-05-01T12:58:37;8.57;;;6.07;;
36827;SDS011;22766;48.042;11.192;2023-05-01T13:01:04;9.82;;;5.60;;
36827;SDS011;22766;48.042;11.192;2023-05-01T13:03:32;11.95;;;6.78;;
36827;SDS011;22766;48.042;11.192;2023-05-01T13:06:00;11.82;;;7.72;;
36827;SDS011;22766;48.042;11.192;2023-05-01T13:08:30;8.73;;;6.57;;
36827;SDS011;22766;48.042;11.192;2023-05-01T13:10:57;6.80;;;5.20;;
36827;SDS011;22766;48.042;11.192;2023-05-01T13:13:34;8.30;;;5.63;;
36827;SDS011;22766;48.042;11.192;2023-05-01T13:16:02;9.02;;;5.45;;
36827;SDS011;22766;48.042;11.192;2023-05-01T13:18:42;7.15;;;5.38;;
36827;SDS011;22766;48.042;11.192;2023-05-01T13:21:11;12.75;;;5.75;;
36827;SDS011;22766;48.042;11.192;2023-05-01T13:23:41;7.78;;;4.95;;
36827;SDS011;22766;48.042;11.192;2023-05-01T13:26:16;5.85;;;4.30;;
36827;SDS011;22766;48.042;11.192;2023-05-01T13:28:43;8.90;;;5.03;;
36827;SDS011;22766;48.042;11.192;2023-05-01T13:31:11;7.78;;;4.68;;
36827;SDS011;22766;48.042;11.192;2023-05-01T13:33:42;5.70;;;4.38;;
36827;SDS011;22766;48.042;11.192;2023-05-01T13:36:09;5.88;;;3.90;;
36827;SDS011;22766;48.042;11.192;2023-05-01T13:38:52;5.95;;;4.55;;
36827;SDS011;22766;48.042;11.192;2023-05-01T13:41:22;6.28;;;4.68;;
36827;SDS011;22766;48.042;11.192;2023-05-01T13:43:51;7.05;;;4.72;;
36827;SDS011;22766;48.042;11.192;2023-05-01T13:46:19;6.30;;;4.43;;
36827;SDS011;22766;48.042;11.192;2023-05-01T13:48:47;6.10;;;4.15;;
36827;SDS011;22766;48.042;11.192;2023-05-01T13:51:21;6.55;;;3.92;;
36827;SDS011;22766;48.042;11.192;2023-05-01T13:53:50;5.65;;;3.63;;
36827;SDS011;22766;48.042;11.192;2023-05-01T13:56:19;5.07;;;3.67;;
36827;SDS011;22766;48.042;11.192;2023-05-01T13:58:47;5.13;;;3.10;;
36827;SDS011;22766;48.042;11.192;2023-05-01T14:01:16;6.10;;;3.58;;
36827;SDS011;22766;48.042;11.192;2023-05-01T14:03:48;4.15;;;2.75;;
36827;SDS011;22766;48.042;11.192;2023-05-01T14:06:17;4.07;;;2.78;;
36827;SDS011;22766;48.042;11.192;2023-05-01T14:08:45;6.30;;;3.25;;
36827;SDS011;22766;48.042;11.192;2023-05-01T14:11:13;6.07;;;3.30;;
36827;SDS011;22766;48.042;11.192;2023-05-01T14:13:41;6.75;;;3.08;;
36827;SDS011;22766;48.042;11.192;2023-05-01T14:16:10;4.93;;;3.35;;
36827;SDS011;22766;48.042;11.192;2023-05-01T14:18:46;5.18;;;3.03;;
36827;SDS011;22766;48.042;11.192;2023-05-01T14:21:14;4.15;;;2.65;;
36827;SDS011;22766;48.042;11.192;2023-05-01T14:23:42;6.10;;;2.90;;
36827;SDS011;22766;48.042;11.192;2023-05-01T14:26:10;5.78;;;2.95;;
36827;SDS011;22766;48.042;11.192;2023-05-01T14:28:40;4.40;;;2.67;;
36827;SDS011;22766;48.042;11.192;2023-05-01T14:31:25;7.22;;;3.35;;
36827;SDS011;22766;48.042;11.192;2023-05-01T14:34:01;4.45;;;2.90;;
36827;SDS011;22766;48.042;11.192;2023-05-01T14:36:31;4.13;;;2.83;;
36827;SDS011;22766;48.042;11.192;2023-05-01T14:38:58;4.63;;;3.00;;
36827;SDS011;22766;48.042;11.192;2023-05-01T14:41:26;4.65;;;2.88;;
36827;SDS011;22766;48.042;11.192;2023-05-01T14:43:52;5.13;;;3.05;;
36827;SDS011;22766;48.042;11.192;2023-05-01T14:48:59;4.80;;;3.05;;
36827;SDS011;22766;48.042;11.192;2023-05-01T14:51:27;5.38;;;2.85;;
36827;SDS011;22766;48.042;11.192;2023-05-01T14:53:54;3.65;;;2.78;;
36827;SDS011;22766;48.042;11.192;2023-05-01T14:56:21;6.78;;;3.50;;
36827;SDS011;22766;48.042;11.192;2023-05-01T14:58:48;46.47;;;16.80;;
36827;SDS011;22766;48.042;11.192;2023-05-01T15:01:15;14.57;;;6.13;;
36827;SDS011;22766;48.042;11.192;2023-05-01T15:03:43;27.33;;;8.98;;
36827;SDS011;22766;48.042;11.192;2023-05-01T15:06:10;39.45;;;14.25;;
36827;SDS011;22766;48.042;11.192;2023-05-01T15:08:37;32.55;;;12.63;;
36827;SDS011;22766;48.042;11.192;2023-05-01T15:11:04;22.60;;;8.70;;
36827;SDS011;22766;48.042;11.192;2023-05-01T15:13:31;6.93;;;3.80;;
36827;SDS011;22766;48.042;11.192;2023-05-01T15:15:58;7.57;;;4.30;;
36827;SDS011;22766;48.042;11.192;2023-05-01T15:18:25;9.25;;;4.85;;
36827;SDS011;22766;48.042;11.192;2023-05-01T15:20:51;8.40;;;3.85;;
36827;SDS011;22766;48.042;11.192;2023-05-01T15:23:18;5.22;;;3.25;;
36827;SDS011;22766;48.042;11.192;2023-05-01T15:25:45;7.03;;;4.15;;
36827;SDS011;22766;48.042;11.192;2023-05-01T15:28:13;8.07;;;3.80;;
36827;SDS011;22766;48.042;11.192;2023-05-01T15:30:46;7.95;;;4.53;;
36827;SDS011;22766;48.042;11.192;2023-05-01T15:33:17;8.07;;;4.22;;
36827;SDS011;22766;48.042;11.192;2023-05-01T15:35:44;7.28;;;4.80;;